sensor_id;sensor_type;location;lat;lon;timestamp;P1;durP1;ratioP1;P2;durP2;ratioP2
82475;SDS011;72099;43.176;76.872;2024-02-15T00:04:26;0.80;;;0.80;;
82475;SDS011;72099;43.176;76.872;2024-02-15T00:07:27;0.85;;;0.63;;
82475;SDS011;72099;43.176;76.872;2024-02-15T00:10:28;0.50;;;0.50;;
82475;SDS011;72099;43.176;76.872;2024-02-15T00:13:28;1.02;;;0.73;;
82475;SDS011;72099;43.176;76.872;2024-02-15T00:16:30;0.82;;;0.70;;
82475;SDS011;72099;43.176;76.872;2024-02-15T00:19:31;1.45;;;0.93;;
82475;SDS011;72099;43.176;76.872;2024-02-15T00:22:32;0.75;;;0.50;;
82475;SDS011;72099;43.176;76.872;2024-02-15T00:25:33;1.17;;;0.82;;
82475;SDS011;72099;43.176;76.872;2024-02-15T00:28:35;1.75;;;0.65;;
82475;SDS011;72099;43.176;76.872;2024-02-15T00:31:35;1.42;;;0.98;;
82475;SDS011;72099;43.176;76.872;2024-02-15T00:34:38;1.23;;;0.70;;
82475;SDS011;72099;43.176;76.872;2024-02-15T00:37:42;1.40;;;1.10;;
82475;SDS011;72099;43.176;76.872;2024-02-15T00:40:43;2.28;;;1.00;;
82475;SDS011;72099;43.176;76.872;2024-02-15T00:43:44;1.65;;;0.98;;
82475;SDS011;72099;43.176;76.872;2024-02-15T00:46:44;1.90;;;1.08;;
82475;SDS011;72099;43.176;76.872;2024-02-15T00:49:47;2.20;;;0.90;;
82475;SDS011;72099;43.176;76.872;2024-02-15T00:52:50;1.48;;;0.85;;
82475;SDS011;72099;43.176;76.872;2024-02-15T00:55:51;2.20;;;0.85;;
82475;SDS011;72099;43.176;76.872;2024-02-15T00:58:52;1.38;;;0.93;;
82475;SDS011;72099;43.176;76.872;2024-02-15T01:01:53;1.40;;;0.93;;
82475;SDS011;72099;43.176;76.872;2024-02-15T01:04:54;1.70;;;1.02;;
82475;SDS011;72099;43.176;76.872;2024-02-15T01:07:57;1.40;;;0.95;;
82475;SDS011;72099;43.176;76.872;2024-02-15T01:10:58;1.98;;;0.80;;
82475;SDS011;72099;43.176;76.872;2024-02-15T01:13:59;1.35;;;0.82;;
82475;SDS011;72099;43.176;76.872;2024-02-15T01:17:00;1.63;;;1.10;;
82475;SDS011;72099;43.176;76.872;2024-02-15T01:20:01;1.35;;;0.70;;
82475;SDS011;72099;43.176;76.872;2024-02-15T01:26:03;5.57;;;1.60;;
82475;SDS011;72099;43.176;76.872;2024-02-15T01:29:05;2.55;;;1.40;;
82475;SDS011;72099;43.176;76.872;2024-02-15T01:32:05;4.85;;;1.77;;
82475;SDS011;72099;43.176;76.872;2024-02-15T01:35:06;3.80;;;1.75;;
82475;SDS011;72099;43.176;76.872;2024-02-15T01:38:08;11.02;;;3.30;;
82475;SDS011;72099;43.176;76.872;2024-02-15T01:41:09;8.95;;;2.78;;
82475;SDS011;72099;43.176;76.872;2024-02-15T01:44:10;5.55;;;2.50;;
82475;SDS011;72099;43.176;76.872;2024-02-15T01:47:11;12.95;;;3.88;;
82475;SDS011;72099;43.176;76.872;2024-02-15T01:53:13;18.52;;;7.43;;
82475;SDS011;72099;43.176;76.872;2024-02-15T01:56:14;18.73;;;9.40;;
82475;SDS011;72099;43.176;76.872;2024-02-15T01:59:17;16.60;;;8.77;;
82475;SDS011;72099;43.176;76.872;2024-02-15T02:02:20;6.78;;;2.72;;
82475;SDS011;72099;43.176;76.872;2024-02-15T02:05:22;10.80;;;5.03;;
82475;SDS011;72099;43.176;76.872;2024-02-15T02:08:23;6.90;;;3.13;;
82475;SDS011;72099;43.176;76.872;2024-02-15T02:11:24;6.60;;;3.13;;
82475;SDS011;72099;43.176;76.872;2024-02-15T02:14:26;7.85;;;4.13;;
82475;SDS011;72099;43.176;76.872;2024-02-15T02:17:27;6.85;;;2.63;;
82475;SDS011;72099;43.176;76.872;2024-02-15T02:23:55;7.80;;;3.75;;
82475;SDS011;72099;43.176;76.872;2024-02-15T02:26:58;9.02;;;3.08;;
82475;SDS011;72099;43.176;76.872;2024-02-15T02:29:59;5.55;;;2.85;;
82475;SDS011;72099;43.176;76.872;2024-02-15T02:33:00;5.60;;;2.58;;
82475;SDS011;72099;43.176;76.872;2024-02-15T02:36:01;4.22;;;2.47;;
82475;SDS011;72099;43.176;76.872;2024-02-15T02:39:02;8.57;;;4.28;;
82475;SDS011;72099;43.176;76.872;2024-02-15T02:42:03;4.03;;;2.40;;
82475;SDS011;72099;43.176;76.872;2024-02-15T02:45:04;4.38;;;2.10;;
82475;SDS011;72099;43.176;76.872;2024-02-15T02:48:05;7.10;;;2.10;;
82475;SDS011;72099;43.176;76.872;2024-02-15T02:54:08;5.25;;;1.92;;
82475;SDS011;72099;43.176;76.872;2024-02-15T02:57:08;3.83;;;1.92;;
82475;SDS011;72099;43.176;76.872;2024-02-15T03:00:10;3.30;;;1.75;;
82475;SDS011;72099;43.176;76.872;2024-02-15T03:03:13;10.18;;;2.20;;
82475;SDS011;72099;43.176;76.872;2024-02-15T03:06:14;5.78;;;2.50;;
82475;SDS011;72099;43.176;76.872;2024-02-15T03:09:14;6.72;;;1.90;;
82475;SDS011;72099;43.176;76.872;2024-02-15T03:12:15;4.75;;;1.73;;
82475;SDS011;72099;43.176;76.872;2024-02-15T03:15:18;2.72;;;1.50;;
82475;SDS011;72099;43.176;76.872;2024-02-15T03:18:20;4.15;;;1.50;;
82475;SDS011;72099;43.176;76.872;2024-02-15T03:21:25;1.50;;;1.05;;
82475;SDS011;72099;43.176;76.872;2024-02-15T03:24:27;2.28;;;1.38;;
82475;SDS011;72099;43.176;76.872;2024-02-15T03:27:28;3.17;;;1.75;;
82475;SDS011;72099;43.176;76.872;2024-02-15T03:34:00;1.90;;;1.20;;
82475;SDS011;72099;43.176;76.872;2024-02-15T03:37:01;4.00;;;1.50;;
82475;SDS011;72099;43.176;76.872;2024-02-15T03:40:04;4.63;;;2.80;;
82475;SDS011;72099;43.176;76.872;2024-02-15T03:43:07;3.58;;;1.45;;
82475;SDS011;72099;43.176;76.872;2024-02-15T03:46:08;3.20;;;1.80;;
82475;SDS011;72099;43.176;76.872;2024-02-15T03:49:12;3.97;;;1.60;;
82475;SDS011;72099;43.176;76.872;2024-02-15T03:52:13;3.40;;;1.73;;
82475;SDS011;72099;43.176;76.872;2024-02-15T03:55:15;2.72;;;1.35;;
82475;SDS011;72099;43.176;76.872;2024-02-15T03:58:16;2.75;;;1.50;;
82475;SDS011;72099;43.176;76.872;2024-02-15T04:04:48;2.92;;;1.48;;
82475;SDS011;72099;43.176;76.872;2024-02-15T04:07:49;2.42;;;1.38;;
82475;SDS011;72099;43.176;76.872;2024-02-15T04:10:59;2.65;;;1.45;;
82475;SDS011;72099;43.176;76.872;2024-02-15T04:14:00;3.17;;;1.40;;
82475;SDS011;72099;43.176;76.872;2024-02-15T04:17:00;2.25;;;1.50;;
82475;SDS011;72099;43.176;76.872;2024-02-15T04:20:01;2.03;;;1.27;;
82475;SDS011;72099;43.176;76.872;2024-02-15T04:23:04;4.47;;;1.40;;
82475;SDS011;72099;43.176;76.872;2024-02-15T04:29:05;4.32;;;1.75;;
82475;SDS011;72099;43.176;76.872;2024-02-15T04:32:09;10.27;;;1.80;;
82475;SDS011;72099;43.176;76.872;2024-02-15T04:35:10;3.40;;;1.60;;
82475;SDS011;72099;43.176;76.872;2024-02-15T04:38:12;3.97;;;1.75;;
82475;SDS011;72099;43.176;76.872;2024-02-15T04:44:13;3.28;;;1.45;;
82475;SDS011;72099;43.176;76.872;2024-02-15T04:47:16;2.85;;;1.52;;
82475;SDS011;72099;43.176;76.872;2024-02-15T04:53:18;1.92;;;1.35;;
82475;SDS011;72099;43.176;76.872;2024-02-15T04:59:21;3.92;;;1.80;;
82475;SDS011;72099;43.176;76.872;2024-02-15T05:02:25;3.08;;;1.33;;
82475;SDS011;72099;43.176;76.872;2024-02-15T05:05:26;1.30;;;1.00;;
82475;SDS011;72099;43.176;76.872;2024-02-15T05:08:29;8.07;;;3.53;;
82475;SDS011;72099;43.176;76.872;2024-02-15T05:11:32;4.18;;;1.40;;
82475;SDS011;72099;43.176;76.872;2024-02-15T05:14:35;3.33;;;1.60;;
82475;SDS011;72099;43.176;76.872;2024-02-15T05:17:37;2.05;;;1.20;;
82475;SDS011;72099;43.176;76.872;2024-02-15T05:20:40;1.77;;;1.20;;
82475;SDS011;72099;43.176;76.872;2024-02-15T05:23:41;2.97;;;1.30;;
82475;SDS011;72099;43.176;76.872;2024-02-15T05:26:44;1.50;;;1.15;;
82475;SDS011;72099;43.176;76.872;2024-02-15T05:29:52;2.58;;;1.23;;
82475;SDS011;72099;43.176;76.872;2024-02-15T05:32:53;3.60;;;1.77;;
82475;SDS011;72099;43.176;76.872;2024-02-15T05:35:54;2.85;;;1.60;;
82475;SDS011;72099;43.176;76.872;2024-02-15T05:38:55;2.00;;;1.48;;
82475;SDS011;72099;43.176;76.872;2024-02-15T05:41:57;2.25;;;1.50;;
82475;SDS011;72099;43.176;76.872;2024-02-15T05:48:30;1.92;;;1.35;;
82475;SDS011;72099;43.176;76.872;2024-02-15T05:51:31;2.33;;;1.30;;
82475;SDS011;72099;43.176;76.872;2024-02-15T05:54:32;3.65;;;1.80;;
82475;SDS011;72099;43.176;76.872;2024-02-15T05:57:33;2.33;;;1.60;;
82475;SDS011;72099;43.176;76.872;2024-02-15T06:00:33;5.88;;;1.90;;
82475;SDS011;72099;43.176;76.872;2024-02-15T06:03:34;2.20;;;1.23;;
82475;SDS011;72099;43.176;76.872;2024-02-15T06:06:38;2.35;;;1.40;;
82475;SDS011;72099;43.176;76.872;2024-02-15T06:09:39;4.22;;;1.67;;
82475;SDS011;72099;43.176;76.872;2024-02-15T06:12:41;2.38;;;1.58;;
82475;SDS011;72099;43.176;76.872;2024-02-15T06:15:41;3.03;;;1.50;;
82475;SDS011;72099;43.176;76.872;2024-02-15T06:18:42;2.60;;;1.65;;
82475;SDS011;72099;43.176;76.872;2024-02-15T06:21:43;16.27;;;13.13;;
82475;SDS011;72099;43.176;76.872;2024-02-15T06:24:44;2.70;;;1.60;;
82475;SDS011;72099;43.176;76.872;2024-02-15T06:27:45;5.07;;;1.95;;
82475;SDS011;72099;43.176;76.872;2024-02-15T06:30:46;2.90;;;1.60;;
82475;SDS011;72099;43.176;76.872;2024-02-15T06:34:05;4.13;;;1.92;;
82475;SDS011;72099;43.176;76.872;2024-02-15T06:37:38;6.93;;;3.60;;
82475;SDS011;72099;43.176;76.872;2024-02-15T06:40:57;6.18;;;3.05;;
82475;SDS011;72099;43.176;76.872;2024-02-15T06:43:58;6.43;;;3.80;;
82475;SDS011;72099;43.176;76.872;2024-02-15T06:46:59;7.82;;;4.10;;
82475;SDS011;72099;43.176;76.872;2024-02-15T06:50:00;4.82;;;3.45;;
82475;SDS011;72099;43.176;76.872;2024-02-15T06:53:01;7.53;;;4.50;;
82475;SDS011;72099;43.176;76.872;2024-02-15T06:56:02;13.85;;;4.75;;
82475;SDS011;72099;43.176;76.872;2024-02-15T06:59:03;7.72;;;3.55;;
82475;SDS011;72099;43.176;76.872;2024-02-15T07:02:05;7.38;;;3.30;;
82475;SDS011;72099;43.176;76.872;2024-02-15T07:05:08;8.73;;;2.85;;
82475;SDS011;72099;43.176;76.872;2024-02-15T07:08:10;10.18;;;3.80;;
82475;SDS011;72099;43.176;76.872;2024-02-15T07:11:13;8.98;;;5.50;;
82475;SDS011;72099;43.176;76.872;2024-02-15T07:14:13;18.27;;;11.43;;
82475;SDS011;72099;43.176;76.872;2024-02-15T07:17:16;21.38;;;11.63;;
82475;SDS011;72099;43.176;76.872;2024-02-15T07:20:17;17.45;;;10.25;;
82475;SDS011;72099;43.176;76.872;2024-02-15T07:23:17;16.35;;;9.48;;
82475;SDS011;72099;43.176;76.872;2024-02-15T07:26:18;15.32;;;7.93;;
82475;SDS011;72099;43.176;76.872;2024-02-15T07:29:21;12.48;;;7.53;;
82475;SDS011;72099;43.176;76.872;2024-02-15T07:32:23;11.50;;;6.18;;
82475;SDS011;72099;43.176;76.872;2024-02-15T07:35:24;15.30;;;5.85;;
82475;SDS011;72099;43.176;76.872;2024-02-15T07:38:25;10.48;;;5.10;;
82475;SDS011;72099;43.176;76.872;2024-02-15T07:41:26;7.50;;;4.30;;
82475;SDS011;72099;43.176;76.872;2024-02-15T07:44:28;8.45;;;3.85;;
82475;SDS011;72099;43.176;76.872;2024-02-15T07:47:30;6.07;;;3.83;;
82475;SDS011;72099;43.176;76.872;2024-02-15T07:50:31;6.05;;;3.15;;
82475;SDS011;72099;43.176;76.872;2024-02-15T07:53:32;10.30;;;3.92;;
82475;SDS011;72099;43.176;76.872;2024-02-15T07:56:34;7.43;;;4.25;;
82475;SDS011;72099;43.176;76.872;2024-02-15T07:59:35;5.85;;;2.42;;
82475;SDS011;72099;43.176;76.872;2024-02-15T08:02:39;6.68;;;3.13;;
82475;SDS011;72099;43.176;76.872;2024-02-15T08:05:43;5.70;;;2.78;;
82475;SDS011;72099;43.176;76.872;2024-02-15T08:08:46;9.68;;;4.88;;
82475;SDS011;72099;43.176;76.872;2024-02-15T08:11:48;10.73;;;4.10;;
82475;SDS011;72099;43.176;76.872;2024-02-15T08:14:49;6.25;;;2.08;;
82475;SDS011;72099;43.176;76.872;2024-02-15T08:17:50;5.18;;;2.10;;
82475;SDS011;72099;43.176;76.872;2024-02-15T08:24:16;4.72;;;2.33;;
82475;SDS011;72099;43.176;76.872;2024-02-15T08:27:17;12.13;;;2.00;;
82475;SDS011;72099;43.176;76.872;2024-02-15T08:30:18;4.95;;;1.85;;
82475;SDS011;72099;43.176;76.872;2024-02-15T08:33:19;3.13;;;1.85;;
82475;SDS011;72099;43.176;76.872;2024-02-15T08:36:20;7.72;;;1.90;;
82475;SDS011;72099;43.176;76.872;2024-02-15T08:39:21;4.85;;;1.95;;
82475;SDS011;72099;43.176;76.872;2024-02-15T08:42:22;8.55;;;2.50;;
82475;SDS011;72099;43.176;76.872;2024-02-15T08:45:25;7.05;;;2.30;;
82475;SDS011;72099;43.176;76.872;2024-02-15T08:48:25;5.40;;;2.50;;
82475;SDS011;72099;43.176;76.872;2024-02-15T08:51:26;3.95;;;1.90;;
82475;SDS011;72099;43.176;76.872;2024-02-15T08:54:27;3.10;;;1.80;;
82475;SDS011;72099;43.176;76.872;2024-02-15T08:57:28;8.52;;;2.40;;
82475;SDS011;72099;43.176;76.872;2024-02-15T09:00:29;6.22;;;2.22;;
82475;SDS011;72099;43.176;76.872;2024-02-15T09:03:30;7.35;;;2.00;;
82475;SDS011;72099;43.176;76.872;2024-02-15T09:06:31;5.78;;;1.95;;
82475;SDS011;72099;43.176;76.872;2024-02-15T09:09:32;3.83;;;2.00;;
82475;SDS011;72099;43.176;76.872;2024-02-15T09:12:33;6.78;;;2.10;;
82475;SDS011;72099;43.176;76.872;2024-02-15T09:15:34;3.60;;;2.10;;
82475;SDS011;72099;43.176;76.872;2024-02-15T09:18:35;4.13;;;1.70;;
82475;SDS011;72099;43.176;76.872;2024-02-15T09:21:36;4.38;;;2.13;;
82475;SDS011;72099;43.176;76.872;2024-02-15T09:24:37;12.55;;;3.15;;
82475;SDS011;72099;43.176;76.872;2024-02-15T09:27:38;8.68;;;3.22;;
82475;SDS011;72099;43.176;76.872;2024-02-15T09:34:06;7.43;;;3.03;;
82475;SDS011;72099;43.176;76.872;2024-02-15T09:37:07;5.88;;;2.53;;
82475;SDS011;72099;43.176;76.872;2024-02-15T09:40:08;10.75;;;2.70;;
82475;SDS011;72099;43.176;76.872;2024-02-15T09:43:10;11.52;;;3.55;;
82475;SDS011;72099;43.176;76.872;2024-02-15T09:46:15;10.30;;;2.78;;
82475;SDS011;72099;43.176;76.872;2024-02-15T09:49:17;5.53;;;3.28;;
82475;SDS011;72099;43.176;76.872;2024-02-15T09:52:18;9.45;;;2.88;;
82475;SDS011;72099;43.176;76.872;2024-02-15T09:55:19;5.43;;;2.50;;
82475;SDS011;72099;43.176;76.872;2024-02-15T09:58:23;9.55;;;2.95;;
82475;SDS011;72099;43.176;76.872;2024-02-15T10:01:24;11.13;;;3.42;;
82475;SDS011;72099;43.176;76.872;2024-02-15T10:04:27;6.00;;;2.42;;
82475;SDS011;72099;43.176;76.872;2024-02-15T10:07:28;7.75;;;2.80;;
82475;SDS011;72099;43.176;76.872;2024-02-15T10:10:29;13.55;;;3.10;;
82475;SDS011;72099;43.176;76.872;2024-02-15T10:13:30;9.00;;;3.17;;
82475;SDS011;72099;43.176;76.872;2024-02-15T10:16:32;11.98;;;4.82;;
82475;SDS011;72099;43.176;76.872;2024-02-15T10:19:35;15.95;;;6.25;;
82475;SDS011;72099;43.176;76.872;2024-02-15T10:22:37;19.52;;;7.57;;
82475;SDS011;72099;43.176;76.872;2024-02-15T10:25:39;15.68;;;7.15;;
82475;SDS011;72099;43.176;76.872;2024-02-15T10:28:40;15.32;;;6.50;;
82475;SDS011;72099;43.176;76.872;2024-02-15T10:31:51;12.70;;;6.20;;
82475;SDS011;72099;43.176;76.872;2024-02-15T10:34:57;13.80;;;5.97;;
82475;SDS011;72099;43.176;76.872;2024-02-15T10:38:08;12.23;;;5.97;;
82475;SDS011;72099;43.176;76.872;2024-02-15T10:44:47;12.25;;;3.83;;
82475;SDS011;72099;43.176;76.872;2024-02-15T10:47:48;11.15;;;3.45;;
82475;SDS011;72099;43.176;76.872;2024-02-15T10:54:24;10.38;;;3.70;;
82475;SDS011;72099;43.176;76.872;2024-02-15T10:57:47;7.90;;;3.97;;
82475;SDS011;72099;43.176;76.872;2024-02-15T11:04:19;9.25;;;4.35;;
82475;SDS011;72099;43.176;76.872;2024-02-15T11:07:25;6.38;;;3.38;;
82475;SDS011;72099;43.176;76.872;2024-02-15T11:10:27;10.00;;;4.82;;
82475;SDS011;72099;43.176;76.872;2024-02-15T11:13:29;9.40;;;4.05;;
82475;SDS011;72099;43.176;76.872;2024-02-15T11:19:40;6.25;;;3.80;;
82475;SDS011;72099;43.176;76.872;2024-02-15T11:22:54;8.48;;;3.80;;
82475;SDS011;72099;43.176;76.872;2024-02-15T11:25:59;4.78;;;2.85;;
82475;SDS011;72099;43.176;76.872;2024-02-15T11:29:00;5.10;;;2.50;;
82475;SDS011;72099;43.176;76.872;2024-02-15T11:32:03;5.03;;;2.50;;
82475;SDS011;72099;43.176;76.872;2024-02-15T11:35:09;4.22;;;2.45;;
82475;SDS011;72099;43.176;76.872;2024-02-15T11:38:27;6.63;;;2.83;;
82475;SDS011;72099;43.176;76.872;2024-02-15T11:41:28;4.97;;;3.00;;
82475;SDS011;72099;43.176;76.872;2024-02-15T11:44:29;4.07;;;2.40;;
82475;SDS011;72099;43.176;76.872;2024-02-15T11:47:32;4.47;;;2.40;;
82475;SDS011;72099;43.176;76.872;2024-02-15T11:54:11;7.63;;;2.50;;
82475;SDS011;72099;43.176;76.872;2024-02-15T12:00:22;5.70;;;2.08;;
82475;SDS011;72099;43.176;76.872;2024-02-15T12:03:54;12.10;;;3.53;;
82475;SDS011;72099;43.176;76.872;2024-02-15T12:07:14;6.93;;;3.83;;
82475;SDS011;72099;43.176;76.872;2024-02-15T12:10:34;8.18;;;4.13;;
82475;SDS011;72099;43.176;76.872;2024-02-15T12:13:53;5.63;;;2.80;;
82475;SDS011;72099;43.176;76.872;2024-02-15T12:17:13;9.45;;;2.47;;
82475;SDS011;72099;43.176;76.872;2024-02-15T12:20:32;13.38;;;3.58;;
82475;SDS011;72099;43.176;76.872;2024-02-15T12:23:34;7.18;;;2.70;;
82475;SDS011;72099;43.176;76.872;2024-02-15T12:26:35;6.72;;;2.42;;
82475;SDS011;72099;43.176;76.872;2024-02-15T12:29:36;9.00;;;2.50;;
82475;SDS011;72099;43.176;76.872;2024-02-15T12:35:38;6.60;;;2.28;;
82475;SDS011;72099;43.176;76.872;2024-02-15T12:41:49;8.73;;;2.03;;
82475;SDS011;72099;43.176;76.872;2024-02-15T12:44:51;6.38;;;2.10;;
82475;SDS011;72099;43.176;76.872;2024-02-15T12:50:53;10.43;;;2.85;;
82475;SDS011;72099;43.176;76.872;2024-02-15T12:54:06;10.38;;;3.30;;
82475;SDS011;72099;43.176;76.872;2024-02-15T12:57:09;6.78;;;2.30;;
82475;SDS011;72099;43.176;76.872;2024-02-15T13:03:43;8.60;;;2.65;;
82475;SDS011;72099;43.176;76.872;2024-02-15T13:06:45;7.75;;;2.60;;
82475;SDS011;72099;43.176;76.872;2024-02-15T13:09:46;10.80;;;2.72;;
82475;SDS011;72099;43.176;76.872;2024-02-15T13:15:48;16.90;;;4.55;;
82475;SDS011;72099;43.176;76.872;2024-02-15T13:21:49;16.55;;;3.42;;
82475;SDS011;72099;43.176;76.872;2024-02-15T13:24:53;9.77;;;2.83;;
82475;SDS011;72099;43.176;76.872;2024-02-15T13:27:55;12.95;;;2.92;;
82475;SDS011;72099;43.176;76.872;2024-02-15T13:31:15;14.60;;;3.15;;
82475;SDS011;72099;43.176;76.872;2024-02-15T13:34:16;8.85;;;3.15;;
82475;SDS011;72099;43.176;76.872;2024-02-15T13:37:17;13.13;;;2.60;;
82475;SDS011;72099;43.176;76.872;2024-02-15T13:40:20;9.52;;;2.55;;
82475;SDS011;72099;43.176;76.872;2024-02-15T13:43:25;15.05;;;4.30;;
82475;SDS011;72099;43.176;76.872;2024-02-15T13:46:26;10.88;;;2.95;;
82475;SDS011;72099;43.176;76.872;2024-02-15T13:49:27;11.77;;;3.75;;
82475;SDS011;72099;43.176;76.872;2024-02-15T13:52:30;11.95;;;3.20;;
82475;SDS011;72099;43.176;76.872;2024-02-15T13:55:31;11.70;;;2.65;;
82475;SDS011;72099;43.176;76.872;2024-02-15T13:58:32;7.50;;;2.42;;
82475;SDS011;72099;43.176;76.872;2024-02-15T14:01:33;7.70;;;2.20;;
82475;SDS011;72099;43.176;76.872;2024-02-15T14:04:34;16.05;;;3.97;;
82475;SDS011;72099;43.176;76.872;2024-02-15T14:07:35;14.20;;;2.85;;
82475;SDS011;72099;43.176;76.872;2024-02-15T14:10:36;17.73;;;3.00;;
82475;SDS011;72099;43.176;76.872;2024-02-15T14:16:38;21.38;;;3.25;;
82475;SDS011;72099;43.176;76.872;2024-02-15T14:19:39;16.88;;;3.78;;
82475;SDS011;72099;43.176;76.872;2024-02-15T14:22:41;12.98;;;3.20;;
82475;SDS011;72099;43.176;76.872;2024-02-15T14:25:49;11.38;;;2.65;;
82475;SDS011;72099;43.176;76.872;2024-02-15T14:28:50;15.60;;;3.22;;
82475;SDS011;72099;43.176;76.872;2024-02-15T14:31:53;20.70;;;3.95;;
82475;SDS011;72099;43.176;76.872;2024-02-15T14:35:15;23.60;;;4.00;;
82475;SDS011;72099;43.176;76.872;2024-02-15T14:38:17;19.10;;;3.58;;
82475;SDS011;72099;43.176;76.872;2024-02-15T14:41:19;16.73;;;3.38;;
82475;SDS011;72099;43.176;76.872;2024-02-15T14:44:21;17.02;;;3.60;;
82475;SDS011;72099;43.176;76.872;2024-02-15T14:47:23;23.30;;;3.80;;
82475;SDS011;72099;43.176;76.872;2024-02-15T14:53:52;18.77;;;3.83;;
82475;SDS011;72099;43.176;76.872;2024-02-15T14:56:53;19.17;;;4.72;;
82475;SDS011;72099;43.176;76.872;2024-02-15T14:59:55;24.08;;;5.03;;
82475;SDS011;72099;43.176;76.872;2024-02-15T15:02:56;26.00;;;4.72;;
82475;SDS011;72099;43.176;76.872;2024-02-15T15:05:57;17.60;;;4.20;;
82475;SDS011;72099;43.176;76.872;2024-02-15T15:09:16;17.85;;;3.17;;
82475;SDS011;72099;43.176;76.872;2024-02-15T15:12:36;18.10;;;3.75;;
82475;SDS011;72099;43.176;76.872;2024-02-15T15:15:37;25.63;;;4.25;;
82475;SDS011;72099;43.176;76.872;2024-02-15T15:18:43;14.60;;;3.38;;
82475;SDS011;72099;43.176;76.872;2024-02-15T15:21:47;17.40;;;3.33;;
82475;SDS011;72099;43.176;76.872;2024-02-15T15:24:48;21.40;;;3.67;;
82475;SDS011;72099;43.176;76.872;2024-02-15T15:27:49;22.42;;;5.35;;
82475;SDS011;72099;43.176;76.872;2024-02-15T15:30:51;18.23;;;3.58;;
82475;SDS011;72099;43.176;76.872;2024-02-15T15:33:51;24.88;;;4.53;;
82475;SDS011;72099;43.176;76.872;2024-02-15T15:36:53;29.42;;;5.47;;
82475;SDS011;72099;43.176;76.872;2024-02-15T15:39:54;21.55;;;4.20;;
82475;SDS011;72099;43.176;76.872;2024-02-15T15:42:56;18.80;;;3.88;;
82475;SDS011;72099;43.176;76.872;2024-02-15T15:45:57;21.15;;;3.55;;
82475;SDS011;72099;43.176;76.872;2024-02-15T15:48:58;21.45;;;3.90;;
82475;SDS011;72099;43.176;76.872;2024-02-15T15:52:00;17.83;;;3.45;;
82475;SDS011;72099;43.176;76.872;2024-02-15T15:55:01;27.38;;;4.82;;
82475;SDS011;72099;43.176;76.872;2024-02-15T15:58:01;13.35;;;3.17;;
82475;SDS011;72099;43.176;76.872;2024-02-15T16:04:32;23.55;;;5.15;;
82475;SDS011;72099;43.176;76.872;2024-02-15T16:07:33;28.45;;;5.75;;
82475;SDS011;72099;43.176;76.872;2024-02-15T16:10:35;27.70;;;6.45;;
82475;SDS011;72099;43.176;76.872;2024-02-15T16:13:36;33.97;;;8.63;;
82475;SDS011;72099;43.176;76.872;2024-02-15T16:16:38;37.70;;;7.07;;
82475;SDS011;72099;43.176;76.872;2024-02-15T16:19:39;31.52;;;8.55;;
82475;SDS011;72099;43.176;76.872;2024-02-15T16:22:43;25.15;;;6.97;;
82475;SDS011;72099;43.176;76.872;2024-02-15T16:25:45;21.65;;;6.60;;
82475;SDS011;72099;43.176;76.872;2024-02-15T16:28:46;19.60;;;4.80;;
82475;SDS011;72099;43.176;76.872;2024-02-15T16:31:47;19.55;;;4.13;;
82475;SDS011;72099;43.176;76.872;2024-02-15T16:34:48;14.25;;;3.88;;
82475;SDS011;72099;43.176;76.872;2024-02-15T16:37:48;21.10;;;4.32;;
82475;SDS011;72099;43.176;76.872;2024-02-15T16:40:49;30.15;;;5.32;;
82475;SDS011;72099;43.176;76.872;2024-02-15T16:43:50;19.15;;;4.78;;
82475;SDS011;72099;43.176;76.872;2024-02-15T16:46:56;20.13;;;3.95;;
82475;SDS011;72099;43.176;76.872;2024-02-15T16:49:57;20.90;;;4.00;;
82475;SDS011;72099;43.176;76.872;2024-02-15T16:53:00;19.17;;;4.32;;
82475;SDS011;72099;43.176;76.872;2024-02-15T16:59:03;16.27;;;2.97;;
82475;SDS011;72099;43.176;76.872;2024-02-15T17:02:04;22.48;;;3.70;;
82475;SDS011;72099;43.176;76.872;2024-02-15T17:05:05;17.05;;;3.70;;
82475;SDS011;72099;43.176;76.872;2024-02-15T17:08:07;21.30;;;3.47;;
82475;SDS011;72099;43.176;76.872;2024-02-15T17:14:37;15.38;;;3.38;;
82475;SDS011;72099;43.176;76.872;2024-02-15T17:17:41;18.80;;;3.08;;
82475;SDS011;72099;43.176;76.872;2024-02-15T17:20:42;13.77;;;3.10;;
82475;SDS011;72099;43.176;76.872;2024-02-15T17:23:44;15.93;;;3.60;;
82475;SDS011;72099;43.176;76.872;2024-02-15T17:26:46;20.77;;;3.40;;
82475;SDS011;72099;43.176;76.872;2024-02-15T17:29:47;15.75;;;3.70;;
82475;SDS011;72099;43.176;76.872;2024-02-15T17:32:48;33.17;;;4.30;;
82475;SDS011;72099;43.176;76.872;2024-02-15T17:35:48;15.57;;;3.17;;
82475;SDS011;72099;43.176;76.872;2024-02-15T17:38:51;23.52;;;5.90;;
82475;SDS011;72099;43.176;76.872;2024-02-15T17:41:52;28.92;;;4.22;;
82475;SDS011;72099;43.176;76.872;2024-02-15T17:44:53;23.10;;;3.95;;
82475;SDS011;72099;43.176;76.872;2024-02-15T17:47:54;18.17;;;3.88;;
82475;SDS011;72099;43.176;76.872;2024-02-15T17:54:20;20.48;;;3.60;;
82475;SDS011;72099;43.176;76.872;2024-02-15T17:57:23;18.75;;;3.70;;
82475;SDS011;72099;43.176;76.872;2024-02-15T18:00:24;16.52;;;4.05;;
82475;SDS011;72099;43.176;76.872;2024-02-15T18:03:28;14.80;;;2.95;;
82475;SDS011;72099;43.176;76.872;2024-02-15T18:06:29;24.27;;;3.47;;
82475;SDS011;72099;43.176;76.872;2024-02-15T18:09:30;15.38;;;3.17;;
82475;SDS011;72099;43.176;76.872;2024-02-15T18:15:32;13.13;;;3.78;;
82475;SDS011;72099;43.176;76.872;2024-02-15T18:18:39;26.35;;;9.75;;
82475;SDS011;72099;43.176;76.872;2024-02-15T18:21:40;22.52;;;3.83;;
82475;SDS011;72099;43.176;76.872;2024-02-15T18:24:42;19.08;;;3.60;;
82475;SDS011;72099;43.176;76.872;2024-02-15T18:27:44;14.45;;;3.88;;
82475;SDS011;72099;43.176;76.872;2024-02-15T18:30:46;12.80;;;2.72;;
82475;SDS011;72099;43.176;76.872;2024-02-15T18:36:50;15.40;;;2.50;;
82475;SDS011;72099;43.176;76.872;2024-02-15T18:39:51;15.30;;;2.95;;
82475;SDS011;72099;43.176;76.872;2024-02-15T18:42:52;11.68;;;2.45;;
82475;SDS011;72099;43.176;76.872;2024-02-15T18:45:53;10.25;;;3.35;;
82475;SDS011;72099;43.176;76.872;2024-02-15T18:48:54;19.13;;;3.53;;
82475;SDS011;72099;43.176;76.872;2024-02-15T18:51:55;17.23;;;2.95;;
82475;SDS011;72099;43.176;76.872;2024-02-15T18:54:56;21.55;;;4.20;;
82475;SDS011;72099;43.176;76.872;2024-02-15T18:57:57;21.67;;;3.95;;
82475;SDS011;72099;43.176;76.872;2024-02-15T19:04:30;11.27;;;3.35;;
82475;SDS011;72099;43.176;76.872;2024-02-15T19:07:31;15.98;;;3.20;;
82475;SDS011;72099;43.176;76.872;2024-02-15T19:10:32;16.83;;;3.63;;
82475;SDS011;72099;43.176;76.872;2024-02-15T19:13:32;15.20;;;3.50;;
82475;SDS011;72099;43.176;76.872;2024-02-15T19:16:33;12.55;;;3.28;;
82475;SDS011;72099;43.176;76.872;2024-02-15T19:19:34;17.23;;;3.17;;
82475;SDS011;72099;43.176;76.872;2024-02-15T19:22:36;22.77;;;3.72;;
82475;SDS011;72099;43.176;76.872;2024-02-15T19:25:37;17.85;;;3.38;;
82475;SDS011;72099;43.176;76.872;2024-02-15T19:28:38;12.90;;;2.78;;
82475;SDS011;72099;43.176;76.872;2024-02-15T19:34:43;14.95;;;3.28;;
82475;SDS011;72099;43.176;76.872;2024-02-15T19:37:44;10.40;;;2.97;;
82475;SDS011;72099;43.176;76.872;2024-02-15T19:40:45;15.02;;;3.47;;
82475;SDS011;72099;43.176;76.872;2024-02-15T19:43:47;16.80;;;3.45;;
82475;SDS011;72099;43.176;76.872;2024-02-15T19:46:53;17.10;;;3.30;;
82475;SDS011;72099;43.176;76.872;2024-02-15T19:53:26;17.83;;;3.78;;
82475;SDS011;72099;43.176;76.872;2024-02-15T19:56:27;15.05;;;3.30;;